createdAt,value
2022-08-11T00:00:55.081Z,1020.75
2022-08-11T00:01:55.076Z,1020.72
2022-08-11T00:02:55.130Z,1020.75
2022-08-11T00:03:55.071Z,1020.73
2022-08-11T00:04:55.072Z,1020.72
2022-08-11T00:05:55.068Z,1020.75
2022-08-11T00:06:55.064Z,1020.74
2022-08-11T00:07:55.065Z,1020.73
2022-08-11T00:08:55.057Z,1020.75
2022-08-11T00:09:55.053Z,1020.68
2022-08-11T00:10:55.054Z,1020.70
2022-08-11T00:11:58.409Z,1020.73
2022-08-11T00:12:55.047Z,1020.71
2022-08-11T00:13:55.043Z,1020.70
2022-08-11T00:14:55.045Z,1020.72
2022-08-11T00:15:55.039Z,1020.73
2022-08-11T00:16:55.036Z,1020.74
2022-08-11T00:17:55.033Z,1020.69
2022-08-11T00:18:55.034Z,1020.70
2022-08-11T00:20:13.866Z,1020.74
2022-08-11T00:20:55.023Z,1020.73
2022-08-11T00:22:04.707Z,1020.68
2022-08-11T00:22:55.020Z,1020.77
2022-08-11T00:23:55.016Z,1020.71
2022-08-11T00:24:58.581Z,1020.71
2022-08-11T00:25:55.010Z,1020.75
2022-08-11T00:26:55.009Z,1020.73
2022-08-11T00:27:55.244Z,1020.71
2022-08-11T00:28:55.002Z,1020.70
2022-08-11T00:29:55.005Z,1020.71
2022-08-11T00:30:54.995Z,1020.70
2022-08-11T00:31:54.997Z,1020.67
2022-08-11T00:32:54.993Z,1020.67
2022-08-11T00:33:54.990Z,1020.67
2022-08-11T00:35:53.752Z,1020.68
2022-08-11T00:35:57.647Z,1020.71
2022-08-11T00:36:54.982Z,1020.73
2022-08-11T00:37:54.977Z,1020.71
2022-08-11T00:38:54.972Z,1020.73
2022-08-11T00:39:55.013Z,1020.68
2022-08-11T00:40:54.970Z,1020.68
2022-08-11T00:41:56.899Z,1020.71
2022-08-11T00:42:54.962Z,1020.69
2022-08-11T00:43:54.957Z,1020.69
2022-08-11T00:44:54.955Z,1020.68
2022-08-11T00:45:54.952Z,1020.72
2022-08-11T00:46:54.951Z,1020.70
2022-08-11T00:47:54.954Z,1020.73
2022-08-11T00:48:54.944Z,1020.73
2022-08-11T00:49:54.939Z,1020.70
2022-08-11T00:50:54.936Z,1020.71
2022-08-11T00:52:04.515Z,1020.71
2022-08-11T00:52:54.930Z,1020.71
2022-08-11T00:53:54.928Z,1020.72
2022-08-11T00:54:54.924Z,1020.71
2022-08-11T00:55:55.766Z,1020.74
2022-08-11T00:56:54.921Z,1020.72
2022-08-11T00:57:54.913Z,1020.75
2022-08-11T00:58:54.913Z,1020.71
2022-08-11T00:59:54.911Z,1020.71
2022-08-11T01:00:54.933Z,1020.68
2022-08-11T01:01:54.901Z,1020.72
2022-08-11T01:02:54.900Z,1020.74
2022-08-11T01:03:54.899Z,1020.73
2022-08-11T01:04:55.873Z,1020.74
2022-08-11T01:05:54.891Z,1020.75
2022-08-11T01:06:54.888Z,1020.74
2022-08-11T01:08:02.766Z,1020.74
2022-08-11T01:08:54.881Z,1020.76
2022-08-11T01:09:54.880Z,1020.73
2022-08-11T01:10:54.875Z,1020.75
2022-08-11T01:11:55.727Z,1020.76
2022-08-11T01:12:54.872Z,1020.72
2022-08-11T01:13:54.865Z,1020.74
2022-08-11T01:14:54.864Z,1020.71
2022-08-11T01:15:57.426Z,1020.70
2022-08-11T01:16:54.857Z,1020.66
2022-08-11T01:17:54.853Z,1020.71
2022-08-11T01:18:54.850Z,1020.72
2022-08-11T01:20:44.846Z,1020.71
2022-08-11T01:20:54.847Z,1020.73
2022-08-11T01:23:26.666Z,1020.72
2022-08-11T01:24:26.490Z,1020.73
2022-08-11T01:26:30.478Z,1020.72
2022-08-11T01:27:30.463Z,1020.70
2022-08-11T01:29:23.385Z,1020.81
2022-08-11T01:30:23.368Z,1020.84
2022-08-11T01:32:27.358Z,1020.83
2022-08-11T01:33:27.352Z,1020.84
2022-08-11T01:35:31.322Z,1020.79
2022-08-11T01:36:31.313Z,1020.78
2022-08-11T01:38:35.301Z,1020.71
2022-08-11T01:39:35.339Z,1020.77
2022-08-11T01:41:39.274Z,1020.74
2022-08-11T01:42:39.478Z,1020.72
2022-08-11T01:44:43.250Z,1020.71
2022-08-11T01:45:43.230Z,1020.72
2022-08-11T01:47:53.263Z,1020.70
2022-08-11T01:48:47.203Z,1020.67
2022-08-11T01:50:08.647Z,1020.69
2022-08-11T01:50:47.192Z,1020.70
2022-08-11T01:51:47.192Z,1020.69
2022-08-11T01:52:47.189Z,1020.68
2022-08-11T01:53:47.183Z,1020.65
2022-08-11T01:54:47.178Z,1020.62
2022-08-11T01:55:47.177Z,1020.61
2022-08-11T01:56:47.172Z,1020.62
2022-08-11T01:57:47.167Z,1020.63
2022-08-11T01:58:47.169Z,1020.56
2022-08-11T01:59:47.168Z,1020.62
2022-08-11T02:00:47.179Z,1020.61
2022-08-11T02:01:47.156Z,1020.61
2022-08-11T02:02:47.151Z,1020.62
2022-08-11T02:03:47.146Z,1020.63
2022-08-11T02:04:47.158Z,1020.65
2022-08-11T02:05:47.141Z,1020.67
2022-08-11T02:06:47.138Z,1020.65
2022-08-11T02:07:47.134Z,1020.62
2022-08-11T02:08:49.528Z,1020.65
2022-08-11T02:09:49.611Z,1020.66
2022-08-11T02:10:50.780Z,1020.62
2022-08-11T02:11:47.123Z,1020.61
2022-08-11T02:12:52.419Z,1020.59
2022-08-11T02:13:47.343Z,1020.60
2022-08-11T02:14:53.633Z,1020.62
2022-08-11T02:15:47.100Z,1020.61
2022-08-11T02:16:47.100Z,1020.60
2022-08-11T02:17:47.094Z,1020.59
2022-08-11T02:18:47.101Z,1020.60
2022-08-11T02:19:47.087Z,1020.57
2022-08-11T02:20:47.084Z,1020.57
2022-08-11T02:21:47.078Z,1020.56
2022-08-11T02:22:47.078Z,1020.58
2022-08-11T02:24:04.441Z,1020.59
2022-08-11T02:24:47.068Z,1020.57
2022-08-11T02:25:47.068Z,1020.61
2022-08-11T02:26:47.060Z,1020.53
2022-08-11T02:27:47.059Z,1020.53
2022-08-11T02:28:47.053Z,1020.53
2022-08-11T02:29:47.048Z,1020.52
2022-08-11T02:30:47.043Z,1020.51
2022-08-11T02:32:15.625Z,1020.49
2022-08-11T02:32:47.043Z,1020.49
2022-08-11T02:33:47.033Z,1020.48
2022-08-11T02:34:59.286Z,1020.48
2022-08-11T02:35:47.025Z,1020.53
2022-08-11T02:36:47.023Z,1020.53
2022-08-11T02:37:47.018Z,1020.53
2022-08-11T02:38:47.011Z,1020.50
2022-08-11T02:39:47.041Z,1020.51
2022-08-11T02:40:47.006Z,1020.51
2022-08-11T02:41:47.000Z,1020.49
2022-08-11T02:42:47.370Z,1020.47
2022-08-11T02:43:50.974Z,1020.48
2022-08-11T02:44:46.989Z,1020.48
2022-08-11T02:45:46.984Z,1020.46
2022-08-11T02:46:46.982Z,1020.46
2022-08-11T02:47:46.977Z,1020.46
2022-08-11T02:48:46.972Z,1020.47
2022-08-11T02:49:46.965Z,1020.47
2022-08-11T02:50:46.963Z,1020.45
2022-08-11T02:51:46.961Z,1020.43
2022-08-11T02:52:46.953Z,1020.42
2022-08-11T02:53:50.989Z,1020.43
2022-08-11T02:54:46.947Z,1020.43
2022-08-11T02:55:57.304Z,1020.45
2022-08-11T02:56:46.939Z,1020.45
2022-08-11T02:57:46.936Z,1020.43
2022-08-11T02:58:46.931Z,1020.46
2022-08-11T02:59:46.928Z,1020.45
2022-08-11T03:00:46.924Z,1020.47
2022-08-11T03:01:47.145Z,1020.46
2022-08-11T03:02:46.919Z,1020.47
2022-08-11T03:03:46.911Z,1020.48
2022-08-11T03:04:46.910Z,1020.49
2022-08-11T03:05:46.904Z,1020.50
2022-08-11T03:06:46.898Z,1020.52
2022-08-11T03:07:46.902Z,1020.53
2022-08-11T03:08:46.891Z,1020.50
2022-08-11T03:09:46.885Z,1020.54
2022-08-11T03:10:46.882Z,1020.50
2022-08-11T03:11:46.879Z,1020.50
2022-08-11T03:12:50.340Z,1020.51
2022-08-11T03:13:46.870Z,1020.52
2022-08-11T03:14:46.868Z,1020.50
2022-08-11T03:15:46.865Z,1020.52
2022-08-11T03:16:46.873Z,1020.52
2022-08-11T03:17:46.851Z,1020.54
2022-08-11T03:18:46.848Z,1020.49
2022-08-11T03:19:46.847Z,1020.53
2022-08-11T03:20:46.840Z,1020.51
2022-08-11T03:22:02.336Z,1020.52
2022-08-11T03:22:46.833Z,1020.51
2022-08-11T03:23:46.829Z,1020.50
2022-08-11T03:24:46.825Z,1020.53
2022-08-11T03:25:46.823Z,1020.51
2022-08-11T03:26:46.810Z,1020.52
2022-08-11T03:27:46.813Z,1020.48
2022-08-11T03:28:46.809Z,1020.50
2022-08-11T03:29:46.802Z,1020.54
2022-08-11T03:30:46.796Z,1020.55
2022-08-11T03:31:46.796Z,1020.52
2022-08-11T03:32:46.795Z,1020.53
2022-08-11T03:33:46.786Z,1020.51
2022-08-11T03:34:46.783Z,1020.53
2022-08-11T03:35:46.777Z,1020.52
2022-08-11T03:37:15.186Z,1020.55
2022-08-11T03:37:46.772Z,1020.54
2022-08-11T03:38:46.762Z,1020.50
2022-08-11T03:39:52.707Z,1020.52
2022-08-11T03:40:46.758Z,1020.51
2022-08-11T03:42:02.591Z,1020.56
2022-08-11T03:42:46.746Z,1020.53
2022-08-11T03:43:58.442Z,1020.52
2022-08-11T03:44:46.740Z,1020.51
2022-08-11T03:45:46.734Z,1020.53
2022-08-11T03:46:46.730Z,1020.49
2022-08-11T03:47:52.561Z,1020.50
2022-08-11T03:48:46.722Z,1020.52
2022-08-11T03:49:46.719Z,1020.50
2022-08-11T03:50:46.712Z,1020.53
2022-08-11T03:51:51.771Z,1020.53
2022-08-11T03:52:46.759Z,1020.51
2022-08-11T03:53:46.700Z,1020.55
2022-08-11T03:54:46.694Z,1020.56
2022-08-11T03:55:46.692Z,1020.48
2022-08-11T03:56:46.688Z,1020.47
2022-08-11T03:57:46.684Z,1020.53
2022-08-11T03:58:46.682Z,1020.52
2022-08-11T03:59:46.673Z,1020.51
2022-08-11T04:00:46.688Z,1020.48
2022-08-11T04:01:46.727Z,1020.48
2022-08-11T04:02:46.663Z,1020.48
2022-08-11T04:03:46.659Z,1020.48
2022-08-11T04:04:50.562Z,1020.50
2022-08-11T04:05:46.648Z,1020.50
2022-08-11T04:06:46.649Z,1020.48
2022-08-11T04:07:46.643Z,1020.50
2022-08-11T04:08:46.637Z,1020.48
2022-08-11T04:09:46.760Z,1020.49
2022-08-11T04:10:46.630Z,1020.47
2022-08-11T04:11:46.622Z,1020.47
2022-08-11T04:12:47.912Z,1020.46
2022-08-11T04:13:46.614Z,1020.50
2022-08-11T04:14:46.610Z,1020.48
2022-08-11T04:15:46.608Z,1020.48
2022-08-11T04:16:46.605Z,1020.49
2022-08-11T04:17:46.595Z,1020.46
2022-08-11T04:18:46.594Z,1020.49
2022-08-11T04:19:46.590Z,1020.52
2022-08-11T04:20:46.585Z,1020.49
2022-08-11T04:21:46.581Z,1020.48
2022-08-11T04:22:46.579Z,1020.51
2022-08-11T04:24:36.254Z,1020.53
2022-08-11T04:24:50.316Z,1020.51
2022-08-11T04:25:57.908Z,1020.55
2022-08-11T04:26:46.559Z,1020.55
2022-08-11T04:27:47.801Z,1020.54
2022-08-11T04:28:50.362Z,1020.57
2022-08-11T04:30:01.893Z,1020.58
2022-08-11T04:30:46.544Z,1020.57
2022-08-11T04:31:51.517Z,1020.59
2022-08-11T04:32:46.536Z,1020.63
2022-08-11T04:33:46.537Z,1020.62
2022-08-11T04:34:46.530Z,1020.66
2022-08-11T04:35:50.921Z,1020.67
2022-08-11T04:36:46.523Z,1020.66
2022-08-11T04:37:53.357Z,1020.67
2022-08-11T04:38:46.531Z,1020.63
2022-08-11T04:39:46.552Z,1020.63
2022-08-11T04:40:46.504Z,1020.63
2022-08-11T04:41:46.501Z,1020.63
2022-08-11T04:42:46.493Z,1020.63
2022-08-11T04:44:02.657Z,1020.55
2022-08-11T04:44:46.486Z,1020.62
2022-08-11T04:45:46.482Z,1020.56
2022-08-11T04:46:46.478Z,1020.59
2022-08-11T04:48:04.428Z,1020.56
2022-08-11T04:48:46.470Z,1020.61
2022-08-11T04:49:46.480Z,1020.62
2022-08-11T04:51:00.683Z,1020.63
2022-08-11T04:51:46.462Z,1020.63
2022-08-11T04:52:46.455Z,1020.67
2022-08-11T04:53:46.448Z,1020.68
2022-08-11T04:54:46.448Z,1020.66
2022-08-11T04:55:46.445Z,1020.67
2022-08-11T04:56:46.470Z,1020.63
2022-08-11T04:57:46.435Z,1020.69
2022-08-11T04:58:46.494Z,1020.71
2022-08-11T04:59:46.430Z,1020.70
2022-08-11T05:00:46.423Z,1020.72
2022-08-11T05:01:46.472Z,1020.69
2022-08-11T05:02:46.418Z,1020.75
2022-08-11T05:03:46.416Z,1020.78
2022-08-11T05:04:46.413Z,1020.74
2022-08-11T05:05:56.218Z,1020.74
2022-08-11T05:06:46.412Z,1020.73
2022-08-11T05:07:46.406Z,1020.75
2022-08-11T05:08:46.396Z,1020.76
2022-08-11T05:09:46.393Z,1020.77
2022-08-11T05:10:46.399Z,1020.77
2022-08-11T05:11:46.396Z,1020.75
2022-08-11T05:12:46.388Z,1020.78
2022-08-11T05:13:46.389Z,1020.82
2022-08-11T05:14:46.390Z,1020.80
2022-08-11T05:15:50.959Z,1020.83
2022-08-11T05:16:46.386Z,1020.82
2022-08-11T05:17:46.381Z,1020.88
2022-08-11T05:18:46.457Z,1020.85
2022-08-11T05:19:46.376Z,1020.87
2022-08-11T05:20:46.369Z,1020.84
2022-08-11T05:21:46.394Z,1020.81
2022-08-11T05:22:46.366Z,1020.81
2022-08-11T05:23:46.360Z,1020.82
2022-08-11T05:24:46.361Z,1020.85
2022-08-11T05:26:44.689Z,1020.86
2022-08-11T05:26:49.371Z,1020.85
2022-08-11T05:27:46.355Z,1020.84
2022-08-11T05:28:46.372Z,1020.86
2022-08-11T05:29:46.347Z,1020.87
2022-08-11T05:30:46.350Z,1020.84
2022-08-11T05:31:46.345Z,1020.86
2022-08-11T05:32:46.345Z,1020.88
2022-08-11T05:33:46.341Z,1020.87
2022-08-11T05:34:46.342Z,1020.88
2022-08-11T05:36:00.080Z,1020.91
2022-08-11T05:36:46.341Z,1020.92
2022-08-11T05:37:46.336Z,1020.91
2022-08-11T05:38:46.332Z,1020.96
2022-08-11T05:39:46.358Z,1020.92
2022-08-11T05:40:51.444Z,1020.92
2022-08-11T05:41:46.330Z,1020.88
2022-08-11T05:42:46.329Z,1020.90
2022-08-11T05:44:21.174Z,1020.93
2022-08-11T05:44:46.327Z,1020.91
2022-08-11T05:46:02.393Z,1020.88
2022-08-11T05:46:46.327Z,1020.91
2022-08-11T05:47:46.322Z,1020.90
2022-08-11T05:48:46.323Z,1020.90
2022-08-11T05:49:46.320Z,1020.90
2022-08-11T05:50:46.322Z,1020.94
2022-08-11T05:51:55.249Z,1020.94
2022-08-11T05:52:46.400Z,1020.97
2022-08-11T05:53:46.647Z,1020.97
2022-08-11T05:54:46.842Z,1020.93
2022-08-11T05:56:01.861Z,1020.95
2022-08-11T05:56:46.315Z,1020.92
2022-08-11T05:57:51.213Z,1020.94
2022-08-11T05:58:46.312Z,1020.94
2022-08-11T05:59:46.314Z,1020.95
2022-08-11T06:00:46.313Z,1020.97
2022-08-11T06:01:46.349Z,1020.95
2022-08-11T06:02:46.315Z,1021.00
2022-08-11T06:03:58.072Z,1021.01
2022-08-11T06:04:46.374Z,1020.96
2022-08-11T06:05:46.315Z,1020.93
2022-08-11T06:06:47.112Z,1020.96
2022-08-11T06:07:48.705Z,1020.97
2022-08-11T06:08:46.321Z,1021.00
2022-08-11T06:09:46.315Z,1020.97
2022-08-11T06:10:46.313Z,1020.95
2022-08-11T06:11:46.313Z,1020.97
2022-08-11T06:12:46.320Z,1021.01
2022-08-11T06:13:46.316Z,1020.94
2022-08-11T06:14:46.314Z,1020.94
2022-08-11T06:15:46.317Z,1020.97
2022-08-11T06:16:46.316Z,1020.90
2022-08-11T06:17:46.317Z,1020.93
2022-08-11T06:18:46.318Z,1020.92
2022-08-11T06:19:46.330Z,1020.97
2022-08-11T06:20:46.321Z,1020.95
2022-08-11T06:21:46.336Z,1021.00
2022-08-11T06:22:49.729Z,1020.97
2022-08-11T06:23:46.333Z,1020.97
2022-08-11T06:24:46.325Z,1021.03
2022-08-11T06:25:46.327Z,1021.03
2022-08-11T06:27:10.797Z,1021.03
2022-08-11T06:27:46.326Z,1021.05
2022-08-11T06:28:46.328Z,1021.02
2022-08-11T06:29:47.804Z,1021.06
2022-08-11T06:30:46.331Z,1021.06
2022-08-11T06:31:46.349Z,1021.06
2022-08-11T06:32:46.334Z,1021.08
2022-08-11T06:33:46.335Z,1021.08
2022-08-11T06:34:46.336Z,1021.07
2022-08-11T06:35:46.340Z,1021.10
2022-08-11T06:36:46.341Z,1021.08
2022-08-11T06:37:46.345Z,1021.09
2022-08-11T06:38:46.344Z,1021.12
2022-08-11T06:39:46.390Z,1021.08
2022-08-11T06:40:46.351Z,1021.09
2022-08-11T06:41:46.359Z,1021.11
2022-08-11T06:42:46.358Z,1021.10
2022-08-11T06:43:55.588Z,1021.07
2022-08-11T06:44:46.356Z,1021.06
2022-08-11T06:45:46.360Z,1021.06
2022-08-11T06:46:46.365Z,1021.05
2022-08-11T06:47:46.370Z,1021.04
2022-08-11T06:48:46.372Z,1021.04
2022-08-11T06:49:46.378Z,1021.04
2022-08-11T06:50:46.379Z,1021.02
2022-08-11T06:51:46.384Z,1021.02
2022-08-11T06:52:46.588Z,1020.98
2022-08-11T06:54:03.527Z,1020.98
2022-08-11T06:54:46.393Z,1020.99
2022-08-11T06:55:55.582Z,1020.99
2022-08-11T06:56:46.400Z,1021.01
2022-08-11T06:57:46.401Z,1020.98
2022-08-11T06:58:46.406Z,1020.99
2022-08-11T06:59:46.410Z,1020.99
2022-08-11T07:00:46.415Z,1020.94
2022-08-11T07:01:47.659Z,1021.00
2022-08-11T07:02:46.420Z,1020.98
2022-08-11T07:03:46.453Z,1020.99
2022-08-11T07:04:46.433Z,1020.98
2022-08-11T07:05:46.433Z,1020.99
2022-08-11T07:06:50.721Z,1020.98
2022-08-11T07:07:46.446Z,1020.94
2022-08-11T07:08:46.447Z,1020.92
2022-08-11T07:09:46.447Z,1020.94
2022-08-11T07:10:46.461Z,1020.94
2022-08-11T07:11:46.467Z,1020.91
2022-08-11T07:12:46.466Z,1020.91
2022-08-11T07:13:46.468Z,1020.94
2022-08-11T07:14:46.474Z,1020.94
2022-08-11T07:16:09.006Z,1020.94
2022-08-11T07:16:46.483Z,1020.94
2022-08-11T07:17:46.489Z,1020.93
2022-08-11T07:18:46.496Z,1020.93
2022-08-11T07:19:46.501Z,1020.93
2022-08-11T07:20:46.503Z,1020.91
2022-08-11T07:22:01.950Z,1020.91
2022-08-11T07:22:46.515Z,1020.94
2022-08-11T07:23:46.521Z,1020.97
2022-08-11T07:25:02.008Z,1020.94
2022-08-11T07:25:46.536Z,1020.94
2022-08-11T07:26:46.537Z,1020.96
2022-08-11T07:27:46.544Z,1020.93
2022-08-11T07:28:46.567Z,1020.95
2022-08-11T07:29:46.554Z,1020.93
2022-08-11T07:30:46.560Z,1020.93
2022-08-11T07:31:46.567Z,1020.89
2022-08-11T07:32:46.571Z,1020.89
2022-08-11T07:34:07.243Z,1020.94
2022-08-11T07:34:46.591Z,1020.93
2022-08-11T07:35:46.590Z,1020.90
2022-08-11T07:36:46.597Z,1020.91
2022-08-11T07:37:46.646Z,1020.90
2022-08-11T07:38:47.495Z,1020.90
2022-08-11T07:39:46.644Z,1020.89
2022-08-11T07:40:46.621Z,1020.88
2022-08-11T07:41:46.639Z,1020.92
2022-08-11T07:42:46.636Z,1020.90
2022-08-11T07:43:46.636Z,1020.91
2022-08-11T07:44:46.647Z,1020.89
2022-08-11T07:45:46.649Z,1020.91
2022-08-11T07:46:46.659Z,1020.93
2022-08-11T07:47:46.671Z,1020.92
2022-08-11T07:48:46.673Z,1020.96
2022-08-11T07:49:46.677Z,1020.94
2022-08-11T07:50:46.689Z,1020.98
2022-08-11T07:51:46.688Z,1020.93
2022-08-11T07:52:46.696Z,1020.99
2022-08-11T07:53:58.814Z,1020.98
2022-08-11T07:54:51.247Z,1020.97
2022-08-11T07:55:51.195Z,1020.98
2022-08-11T07:56:55.576Z,1020.96
2022-08-11T07:58:16.053Z,1020.95
2022-08-11T07:58:53.155Z,1020.96
2022-08-11T08:00:00.063Z,1020.94
2022-08-11T08:00:47.118Z,1020.94
2022-08-11T08:01:46.812Z,1020.95
2022-08-11T08:02:46.768Z,1020.95
2022-08-11T08:03:54.188Z,1020.96
2022-08-11T08:04:47.438Z,1021.00
2022-08-11T08:05:46.784Z,1021.00
2022-08-11T08:06:46.791Z,1021.00
2022-08-11T08:07:46.797Z,1021.03
2022-08-11T08:08:46.811Z,1021.03
2022-08-11T08:09:46.810Z,1021.01
2022-08-11T08:10:46.820Z,1021.03
2022-08-11T08:11:46.826Z,1021.01
2022-08-11T08:12:46.834Z,1020.98
2022-08-11T08:13:46.839Z,1020.98
2022-08-11T08:14:46.845Z,1020.94
2022-08-11T08:15:46.859Z,1020.92
2022-08-11T08:16:46.866Z,1020.94
2022-08-11T08:18:09.138Z,1020.97
2022-08-11T08:18:46.876Z,1020.92
2022-08-11T08:19:46.878Z,1020.89
2022-08-11T08:20:46.899Z,1020.88
2022-08-11T08:21:46.895Z,1020.87
2022-08-11T08:22:48.697Z,1020.91
2022-08-11T08:23:46.908Z,1020.86
2022-08-11T08:24:46.912Z,1020.84
2022-08-11T08:25:46.927Z,1020.85
2022-08-11T08:26:51.347Z,1020.82
2022-08-11T08:27:46.927Z,1020.80
2022-08-11T08:28:46.936Z,1020.81
2022-08-11T08:29:46.940Z,1020.77
2022-08-11T08:30:46.943Z,1020.81
2022-08-11T08:31:46.951Z,1020.80
2022-08-11T08:32:46.950Z,1020.77
2022-08-11T08:33:46.969Z,1020.77
2022-08-11T08:34:46.966Z,1020.73
2022-08-11T08:35:54.522Z,1020.72
2022-08-11T08:36:46.978Z,1020.70
2022-08-11T08:37:47.878Z,1020.70
2022-08-11T08:38:46.995Z,1020.67
2022-08-11T08:39:47.038Z,1020.71
2022-08-11T08:40:46.991Z,1020.73
2022-08-11T08:41:46.996Z,1020.71
2022-08-11T08:42:47.224Z,1020.72
2022-08-11T08:43:48.463Z,1020.69
2022-08-11T08:44:47.014Z,1020.68
2022-08-11T08:45:47.006Z,1020.70
2022-08-11T08:46:47.012Z,1020.69
2022-08-11T08:47:49.897Z,1020.72
2022-08-11T08:48:47.018Z,1020.72
2022-08-11T08:49:47.022Z,1020.71
2022-08-11T08:50:47.168Z,1020.69
2022-08-11T08:51:58.668Z,1020.73
2022-08-11T08:52:47.184Z,1020.74
2022-08-11T08:53:52.642Z,1020.72
2022-08-11T08:54:47.037Z,1020.73
2022-08-11T08:55:47.047Z,1020.72
2022-08-11T08:56:47.047Z,1020.75
2022-08-11T08:57:47.049Z,1020.74
2022-08-11T08:58:47.058Z,1020.74
2022-08-11T08:59:48.680Z,1020.72
2022-08-11T09:00:47.058Z,1020.71
2022-08-11T09:01:47.126Z,1020.69
2022-08-11T09:02:47.253Z,1020.68
2022-08-11T09:04:05.030Z,1020.66
2022-08-11T09:04:47.071Z,1020.66
2022-08-11T09:05:47.068Z,1020.65
2022-08-11T09:06:50.038Z,1020.66
2022-08-11T09:07:47.079Z,1020.64
2022-08-11T09:08:47.079Z,1020.62
2022-08-11T09:09:47.084Z,1020.66
2022-08-11T09:10:47.086Z,1020.58
2022-08-11T09:11:47.088Z,1020.59
2022-08-11T09:12:47.281Z,1020.64
2022-08-11T09:13:47.089Z,1020.62
2022-08-11T09:14:47.095Z,1020.62
2022-08-11T09:15:47.097Z,1020.62
2022-08-11T09:16:47.097Z,1020.57
2022-08-11T09:17:47.100Z,1020.55
2022-08-11T09:18:47.113Z,1020.58
2022-08-11T09:19:52.201Z,1020.56
2022-08-11T09:20:47.112Z,1020.59
2022-08-11T09:21:48.810Z,1020.59
2022-08-11T09:22:47.110Z,1020.58
2022-08-11T09:24:22.107Z,1020.58
2022-08-11T09:24:47.118Z,1020.56
2022-08-11T09:25:47.124Z,1020.56
2022-08-11T09:26:47.121Z,1020.60
2022-08-11T09:27:50.535Z,1020.53
2022-08-11T09:28:47.126Z,1020.58
2022-08-11T09:29:47.129Z,1020.53
2022-08-11T09:30:47.130Z,1020.54
2022-08-11T09:31:47.142Z,1020.52
2022-08-11T09:32:47.130Z,1020.50
2022-08-11T09:33:47.138Z,1020.52
2022-08-11T09:34:47.193Z,1020.50
2022-08-11T09:35:47.138Z,1020.57
2022-08-11T09:36:47.142Z,1020.56
2022-08-11T09:37:55.253Z,1020.53
2022-08-11T09:38:49.602Z,1020.53
2022-08-11T09:39:47.202Z,1020.54
2022-08-11T09:40:47.156Z,1020.53
2022-08-11T09:42:01.705Z,1020.52
2022-08-11T09:42:47.153Z,1020.52
2022-08-11T09:43:47.165Z,1020.52
2022-08-11T09:44:47.163Z,1020.51
2022-08-11T09:45:47.163Z,1020.48
2022-08-11T09:46:47.162Z,1020.47
2022-08-11T09:47:47.160Z,1020.43
2022-08-11T09:48:47.166Z,1020.39
2022-08-11T09:49:47.170Z,1020.38
2022-08-11T09:50:47.171Z,1020.37
2022-08-11T09:51:59.752Z,1020.31
2022-08-11T09:53:03.826Z,1020.35
2022-08-11T09:54:03.674Z,1020.32
2022-08-11T09:54:48.302Z,1020.32
2022-08-11T09:55:47.177Z,1020.34
2022-08-11T09:56:47.179Z,1020.32
2022-08-11T09:57:47.189Z,1020.34
2022-08-11T09:58:47.184Z,1020.34
2022-08-11T09:59:47.187Z,1020.34
2022-08-11T10:00:47.231Z,1020.35
2022-08-11T10:01:47.534Z,1020.38
2022-08-11T10:02:47.210Z,1020.35
2022-08-11T10:03:47.200Z,1020.32
2022-08-11T10:04:47.196Z,1020.32
2022-08-11T10:05:47.199Z,1020.31
2022-08-11T10:06:47.523Z,1020.29
2022-08-11T10:07:47.203Z,1020.31
2022-08-11T10:08:47.205Z,1020.31
2022-08-11T10:09:47.207Z,1020.29
2022-08-11T10:10:47.209Z,1020.32
2022-08-11T10:11:55.507Z,1020.30
2022-08-11T10:12:47.215Z,1020.23
2022-08-11T10:14:33.486Z,1020.20
2022-08-11T10:14:47.294Z,1020.19
2022-08-11T10:15:59.806Z,1020.14
2022-08-11T10:16:47.222Z,1020.17
2022-08-11T10:17:47.225Z,1020.17
2022-08-11T10:18:47.228Z,1020.16
2022-08-11T10:20:01.996Z,1020.16
2022-08-11T10:20:47.234Z,1020.12
2022-08-11T10:21:47.234Z,1020.12
2022-08-11T10:22:47.245Z,1020.08
2022-08-11T10:24:00.490Z,1020.02
2022-08-11T10:24:47.240Z,1020.00
2022-08-11T10:25:47.243Z,1020.01
2022-08-11T10:26:47.247Z,1020.03
2022-08-11T10:28:30.677Z,1020.01
2022-08-11T10:29:11.675Z,1020.01
2022-08-11T10:29:49.997Z,1020.00
2022-08-11T10:30:47.254Z,1020.00
2022-08-11T10:31:57.829Z,1019.94
2022-08-11T10:32:58.798Z,1019.97
2022-08-11T10:33:59.343Z,1019.95
2022-08-11T10:34:49.635Z,1019.98
2022-08-11T10:35:47.263Z,1019.99
2022-08-11T10:36:47.266Z,1019.96
2022-08-11T10:38:06.550Z,1019.96
2022-08-11T10:38:47.273Z,1019.98
2022-08-11T10:39:47.323Z,1019.93
2022-08-11T10:40:47.276Z,1019.92
2022-08-11T10:42:06.517Z,1019.91
2022-08-11T10:42:57.882Z,1019.93
2022-08-11T10:44:02.537Z,1019.94
2022-08-11T10:44:47.288Z,1019.91
2022-08-11T10:45:47.288Z,1019.95
2022-08-11T10:46:47.289Z,1019.86
2022-08-11T10:47:49.066Z,1019.89
2022-08-11T10:48:47.302Z,1019.89
2022-08-11T10:49:47.346Z,1019.84
2022-08-11T10:50:47.298Z,1019.84
2022-08-11T10:51:51.051Z,1019.84
2022-08-11T10:52:47.304Z,1019.82
2022-08-11T10:53:47.305Z,1019.80
2022-08-11T10:54:47.311Z,1019.83
2022-08-11T10:55:47.338Z,1019.79
2022-08-11T10:56:47.313Z,1019.79
2022-08-11T10:58:04.687Z,1019.80
2022-08-11T10:58:47.315Z,1019.81
2022-08-11T10:59:47.319Z,1019.77
2022-08-11T11:00:47.376Z,1019.73
2022-08-11T11:01:47.324Z,1019.73
2022-08-11T11:03:23.112Z,1019.73
2022-08-11T11:03:47.334Z,1019.74
2022-08-11T11:04:50.745Z,1019.69
2022-08-11T11:06:12.896Z,1019.68
2022-08-11T11:06:47.337Z,1019.69
2022-08-11T11:07:47.341Z,1019.66
2022-08-11T11:09:47.345Z,1019.63
2022-08-11T11:10:47.349Z,1019.62
2022-08-11T11:11:47.355Z,1019.58
2022-08-11T11:12:47.352Z,1019.58
2022-08-11T11:13:55.186Z,1019.60
2022-08-11T11:14:49.871Z,1019.61
2022-08-11T11:15:48.315Z,1019.63
2022-08-11T11:16:47.362Z,1019.65
2022-08-11T11:17:47.364Z,1019.60
2022-08-11T11:18:47.375Z,1019.59
2022-08-11T11:19:47.373Z,1019.61
2022-08-11T11:20:48.026Z,1019.57
2022-08-11T11:21:47.374Z,1019.55
2022-08-11T11:22:47.376Z,1019.51
2022-08-11T11:23:47.448Z,1019.54
2022-08-11T11:24:47.400Z,1019.48
2022-08-11T11:25:47.382Z,1019.50
2022-08-11T11:26:47.385Z,1019.48
2022-08-11T11:27:47.392Z,1019.45
2022-08-11T11:28:47.412Z,1019.46
2022-08-11T11:29:47.414Z,1019.45
2022-08-11T11:30:47.399Z,1019.47
2022-08-11T11:31:47.401Z,1019.48
2022-08-11T11:32:49.713Z,1019.50
2022-08-11T11:34:06.787Z,1019.52
2022-08-11T11:34:53.260Z,1019.48
2022-08-11T11:35:47.414Z,1019.51
2022-08-11T11:36:47.413Z,1019.50
2022-08-11T11:37:56.121Z,1019.49
2022-08-11T11:38:47.420Z,1019.51
2022-08-11T11:39:47.454Z,1019.51
2022-08-11T11:40:47.427Z,1019.48
2022-08-11T11:41:47.427Z,1019.48
2022-08-11T11:42:47.432Z,1019.43
2022-08-11T11:43:47.431Z,1019.45
2022-08-11T11:44:47.434Z,1019.44
2022-08-11T11:45:47.437Z,1019.39
2022-08-11T11:46:47.440Z,1019.37
2022-08-11T11:47:47.446Z,1019.38
2022-08-11T11:48:47.444Z,1019.38
2022-08-11T11:49:47.448Z,1019.39
2022-08-11T11:50:47.450Z,1019.42
2022-08-11T11:51:47.464Z,1019.41
2022-08-11T11:52:47.465Z,1019.39
2022-08-11T11:53:47.461Z,1019.42
2022-08-11T11:54:47.463Z,1019.39
2022-08-11T11:55:47.464Z,1019.34
2022-08-11T11:56:47.470Z,1019.35
2022-08-11T11:57:59.081Z,1019.35
2022-08-11T11:58:47.476Z,1019.30
2022-08-11T11:59:47.473Z,1019.28
2022-08-11T12:00:47.481Z,1019.30
2022-08-11T12:01:50.405Z,1019.30
2022-08-11T12:02:47.487Z,1019.32
2022-08-11T12:03:47.491Z,1019.33
2022-08-11T12:04:47.497Z,1019.26
2022-08-11T12:05:47.494Z,1019.21
2022-08-11T12:06:47.491Z,1019.23
2022-08-11T12:07:47.499Z,1019.26
2022-08-11T12:08:47.499Z,1019.23
2022-08-11T12:09:47.504Z,1019.23
2022-08-11T12:10:47.506Z,1019.19
2022-08-11T12:11:47.510Z,1019.18
2022-08-11T12:12:47.513Z,1019.17
2022-08-11T12:13:47.516Z,1019.16
2022-08-11T12:14:47.516Z,1019.11
2022-08-11T12:16:31.000Z,1019.08
2022-08-11T12:16:47.525Z,1019.09